Avery, Arkansas
Current Conditions -  °F | °C
As of 11:53 PM on Saturday 22 Nov 2014 (Local Time) from KLLQ Reporting Station
Broken Clouds Broken Clouds  
Wind Chill: 15°   Ceiling: 4400
Heat Index: 15°   Visibility: 10mi
Dew Point: 11°   Wind: 7mph
Humidity: 75%   Direction: 110°ESE
Pressure: 29.87"   Gusts: NA
Location:  33.9283°N, 91.468°W
Report Text: KLLQ 230553Z AUTO 11006KT 10SM BKN044 15/11 A2987 RMK AO2 SLP113 T01500106 10172 20150 402170122 57025
Loading
Personal Weather Stations






























Interactive Weather Map New forecast layout! Learn more

10-Day Weather Forecast

Advertisements
Track Severe Weather on mobile